Time;durP1;ratioP1;P1;durP2;ratioP2;P2;SDS_P1;SDS_P2;PMS_P1;PMS_P2;Temp;Humidity;BMP_temperature;BMP_pressure;BME280_temperature;BME280_humidity;BME280_pressure;Samples;Min_cycle;Max_cycle;Signal;HPM_P1;HPM_P2
2022/10/23 00:00:46;;;;;;;19.63;18.23;;;13.20;94.70;;;;;;5078712;28;20623;-77
2022/10/23 00:03:13;;;;;;;17.87;16.57;;;13.20;94.80;;;;;;5062622;28;20459;-77
2022/10/23 00:05:40;;;;;;;16.60;15.70;;;13.10;94.90;;;;;;5056576;28;20500;-77
2022/10/23 00:08:08;;;;;;;17.67;16.23;;;13.10;95.00;;;;;;5066009;28;20501;-76
2022/10/23 00:10:35;;;;;;;17.80;16.70;;;13.10;95.00;;;;;;5056293;28;20457;-77
2022/10/23 00:13:02;;;;;;;18.40;16.67;;;13.10;94.80;;;;;;5057539;28;20463;-77
2022/10/23 00:15:29;;;;;;;18.00;16.70;;;13.10;94.80;;;;;;5047396;28;20918;-77
2022/10/23 00:17:57;;;;;;;17.20;16.10;;;13.00;95.00;;;;;;5062741;28;20559;-77
2022/10/23 00:20:24;;;;;;;18.23;16.80;;;13.00;95.10;;;;;;5071937;28;20462;-77
2022/10/23 00:22:51;;;;;;;18.43;17.23;;;12.90;95.30;;;;;;5062744;28;20457;-77
2022/10/23 00:25:19;;;;;;;17.23;15.93;;;12.90;95.20;;;;;;5063302;28;20489;-77
2022/10/23 00:27:46;;;;;;;19.03;17.53;;;12.90;95.30;;;;;;5050470;28;20986;-76
2022/10/23 00:30:13;;;;;;;17.07;16.03;;;12.90;95.40;;;;;;5063117;28;20549;-76
2022/10/23 00:32:40;;;;;;;18.23;16.83;;;12.80;95.60;;;;;;5047216;28;20462;-77
2022/10/23 00:35:09;;;;;;;18.90;17.40;;;12.80;95.80;;;;;;5061516;28;20481;-77
2022/10/23 00:37:36;;;;;;;18.03;16.83;;;12.90;95.80;;;;;;5049967;28;20463;-77
2022/10/23 00:40:04;;;;;;;18.13;16.83;;;12.90;95.70;;;;;;5053711;28;20463;-77
2022/10/23 00:42:31;;;;;;;18.00;16.63;;;12.90;95.60;;;;;;5052745;28;20462;-77
2022/10/23 00:45:16;;;;;;;17.50;16.13;;;12.80;95.60;;;;;;5066034;28;20501;-77
2022/10/23 00:47:43;;;;;;;18.03;16.73;;;12.80;95.70;;;;;;5048277;28;20466;-76
2022/10/23 00:50:12;;;;;;;17.90;16.60;;;12.80;95.60;;;;;;5061615;28;20538;-77
2022/10/23 00:52:42;;;;;;;18.10;17.00;;;12.80;95.60;;;;;;5065114;28;20472;-77
2022/10/23 00:55:09;;;;;;;17.50;16.37;;;12.80;95.30;;;;;;5056729;28;20489;-77
2022/10/23 00:57:37;;;;;;;16.83;15.53;;;12.70;95.50;;;;;;5052182;28;20459;-76
2022/10/23 01:00:05;;;;;;;16.40;15.50;;;12.70;95.50;;;;;;5053821;28;20455;-76
2022/10/23 01:02:32;;;;;;;17.10;16.03;;;12.60;95.70;;;;;;5058136;28;20554;-76
2022/10/23 01:04:59;;;;;;;16.23;15.33;;;12.60;95.80;;;;;;5057412;28;20490;-76
2022/10/23 01:07:33;;;;;;;16.60;15.60;;;12.60;95.70;;;;;;5069361;28;20465;-77
2022/10/23 01:10:05;;;;;;;17.87;16.57;;;12.60;95.70;;;;;;5062067;28;20538;-77
2022/10/23 01:12:38;;;;;;;16.50;15.50;;;12.60;95.70;;;;;;5056960;28;20466;-77
2022/10/23 01:15:11;;;;;;;17.17;15.77;;;12.50;95.80;;;;;;5056480;28;20556;-76
2022/10/23 01:17:43;;;;;;;17.63;15.90;;;12.60;95.70;;;;;;5050659;28;20468;-76
2022/10/23 01:20:31;;;;;;;17.03;16.03;;;12.50;95.80;;;;;;5066447;28;20450;-77
2022/10/23 01:23:28;;;;;;;17.40;16.30;;;12.50;96.00;;;;;;5062521;28;20796;-76
2022/10/23 01:26:08;;;;;;;17.50;16.30;;;12.50;96.00;;;;;;5059607;28;20885;-76
2022/10/23 01:28:47;;;;;;;16.90;15.97;;;12.50;95.90;;;;;;5053798;28;20441;-76
2022/10/23 01:31:18;;;;;;;17.40;16.27;;;12.40;95.90;;;;;;5054744;28;20542;-76
2022/10/23 01:33:48;;;;;;;17.40;16.37;;;12.40;96.10;;;;;;5061974;28;20536;-76
2022/10/23 01:36:18;;;;;;;17.17;16.23;;;12.40;96.10;;;;;;5064440;28;20468;-76
2022/10/23 01:38:52;;;;;;;17.17;15.67;;;12.40;96.00;;;;;;5073380;28;20633;-77
2022/10/23 01:41:27;;;;;;;16.67;15.77;;;12.40;96.10;;;;;;5048641;28;20485;-76
2022/10/23 01:44:04;;;;;;;17.23;16.23;;;12.40;96.00;;;;;;5058193;28;20554;-76
2022/10/23 01:46:34;;;;;;;17.13;16.13;;;12.50;96.00;;;;;;5063308;28;20489;-77
2022/10/23 01:49:04;;;;;;;16.83;15.73;;;12.40;95.90;;;;;;5046916;28;20538;-76
2022/10/23 01:51:33;;;;;;;16.77;15.40;;;12.40;96.00;;;;;;5053779;28;20824;-76
2022/10/23 01:54:01;;;;;;;16.90;15.77;;;12.40;96.00;;;;;;5068884;28;20832;-76
2022/10/23 01:56:32;;;;;;;16.13;15.03;;;12.40;96.10;;;;;;5070640;28;20547;-76
2022/10/23 01:59:04;;;;;;;16.80;15.60;;;12.40;96.10;;;;;;5055669;28;20497;-76
2022/10/23 02:01:34;;;;;;;16.33;15.20;;;12.40;96.00;;;;;;5061249;28;20457;-76
2022/10/23 02:04:05;;;;;;;15.57;14.40;;;12.40;95.90;;;;;;5080207;28;20457;-76
2022/10/23 02:06:32;;;;;;;15.93;15.10;;;12.40;95.80;;;;;;5053612;28;21297;-76
2022/10/23 02:08:59;;;;;;;16.40;15.10;;;12.40;95.80;;;;;;5074834;28;20464;-76
2022/10/23 02:11:26;;;;;;;16.93;15.40;;;12.40;95.90;;;;;;5061967;28;20545;-76
2022/10/23 02:14:01;;;;;;;16.47;15.37;;;12.30;96.10;;;;;;5050655;28;20457;-76
2022/10/23 02:16:39;;;;;;;16.00;14.90;;;12.30;96.10;;;;;;5076545;28;20472;-77
2022/10/23 02:19:16;;;;;;;19.07;15.73;;;12.30;96.20;;;;;;5077669;28;20547;-77
2022/10/23 02:21:51;;;;;;;16.50;15.40;;;12.30;96.20;;;;;;5064538;28;20461;-76
2022/10/23 02:24:23;;;;;;;17.43;16.37;;;12.30;96.20;;;;;;5050574;28;20485;-76
2022/10/23 02:26:53;;;;;;;16.60;15.17;;;12.30;96.30;;;;;;5059626;28;20460;-77
2022/10/23 02:29:26;;;;;;;16.77;15.80;;;12.30;96.30;;;;;;5053855;28;20478;-77
2022/10/23 02:31:54;;;;;;;16.63;15.57;;;12.30;96.30;;;;;;5062751;28;20469;-77
2022/10/23 02:34:21;;;;;;;16.80;15.40;;;12.30;96.20;;;;;;5061757;28;20485;-77
2022/10/23 02:36:48;;;;;;;16.27;15.20;;;12.30;96.10;;;;;;5048583;28;20584;-77
2022/10/23 02:39:15;;;;;;;16.50;15.30;;;12.30;96.10;;;;;;5054574;28;20478;-76
2022/10/23 02:41:46;;;;;;;16.80;15.70;;;12.30;96.10;;;;;;5048662;28;20458;-76
2022/10/23 02:44:24;;;;;;;17.13;15.93;;;12.30;96.10;;;;;;5069309;28;20894;-76
2022/10/23 02:46:58;;;;;;;16.83;15.70;;;12.40;96.10;;;;;;5056890;28;20480;-76
2022/10/23 02:49:31;;;;;;;16.83;15.50;;;12.40;96.00;;;;;;5066420;28;20445;-77
2022/10/23 02:52:07;;;;;;;17.23;16.20;;;12.40;95.70;;;;;;5067557;28;20457;-76
2022/10/23 02:54:48;;;;;;;15.33;14.23;;;12.40;95.80;;;;;;5053179;28;20881;-76
2022/10/23 02:57:22;;;;;;;15.80;14.80;;;12.40;95.70;;;;;;5058424;28;20469;-76
2022/10/23 02:59:56;;;;;;;16.80;15.73;;;12.40;95.80;;;;;;5058452;28;21343;-76
2022/10/23 03:02:30;;;;;;;16.63;15.40;;;12.40;95.90;;;;;;5067720;28;20453;-76
2022/10/23 03:04:58;;;;;;;16.20;15.20;;;12.40;95.80;;;;;;5054959;28;20478;-76
2022/10/23 03:07:26;;;;;;;23.20;21.90;;;12.40;95.80;;;;;;5086875;28;20461;-76
2022/10/23 03:09:53;;;;;;;14.87;14.07;;;12.40;95.70;;;;;;5049980;28;20521;-76
2022/10/23 03:12:20;;;;;;;15.63;14.40;;;12.40;95.70;;;;;;5070349;28;20461;-76
2022/10/23 03:14:47;;;;;;;16.67;15.47;;;12.40;95.80;;;;;;5058745;28;20471;-76
2022/10/23 03:17:14;;;;;;;15.90;14.80;;;12.40;95.80;;;;;;5075025;28;20465;-76
2022/10/23 03:19:42;;;;;;;15.30;14.30;;;12.40;95.90;;;;;;5064396;28;20512;-77
2022/10/23 03:22:09;;;;;;;15.67;14.70;;;12.40;95.90;;;;;;5064654;28;20465;-77
2022/10/23 03:24:36;;;;;;;16.73;15.60;;;12.40;95.80;;;;;;5071396;28;20509;-77
2022/10/23 03:27:03;;;;;;;15.77;14.63;;;12.40;95.80;;;;;;5074858;28;20458;-77
2022/10/23 03:29:29;;;;;;;15.97;14.87;;;12.40;95.80;;;;;;5054135;28;21023;-77
2022/10/23 03:31:56;;;;;;;15.50;14.50;;;12.40;95.90;;;;;;5055840;28;20495;-77
2022/10/23 03:34:23;;;;;;;15.60;14.60;;;12.30;95.90;;;;;;5055767;28;20474;-77
2022/10/23 03:36:52;;;;;;;16.13;14.90;;;12.30;95.90;;;;;;5052081;28;20841;-77
2022/10/23 03:39:18;;;;;;;15.90;15.00;;;12.30;96.00;;;;;;5081358;28;21045;-77
2022/10/23 03:41:45;;;;;;;16.17;15.23;;;12.30;96.10;;;;;;5068157;28;20829;-77
2022/10/23 03:44:12;;;;;;;16.03;15.10;;;12.30;96.20;;;;;;5060756;28;20474;-77
2022/10/23 03:46:39;;;;;;;16.13;15.00;;;12.30;96.30;;;;;;5052014;28;21043;-76
2022/10/23 03:49:06;;;;;;;17.03;15.60;;;12.30;96.40;;;;;;5053579;28;21031;-77
2022/10/23 03:51:33;;;;;;;15.87;14.77;;;12.30;96.40;;;;;;5056160;28;20461;-77
2022/10/23 03:54:01;;;;;;;16.07;14.87;;;12.40;96.30;;;;;;5060577;28;20465;-77
2022/10/23 03:56:28;;;;;;;15.63;14.60;;;12.30;96.30;;;;;;5063027;28;20831;-77
2022/10/23 03:58:55;;;;;;;16.03;14.90;;;12.40;96.10;;;;;;5051210;28;20475;-76
2022/10/23 04:01:22;;;;;;;16.37;15.27;;;12.40;96.20;;;;;;5057638;28;20548;-76
2022/10/23 04:03:49;;;;;;;15.53;14.70;;;12.40;96.20;;;;;;5060047;28;20569;-76
2022/10/23 04:06:16;;;;;;;15.60;14.67;;;12.40;96.20;;;;;;5053613;28;20454;-76
2022/10/23 04:08:43;;;;;;;15.23;14.13;;;12.40;96.20;;;;;;5049534;28;20459;-76
2022/10/23 04:11:12;;;;;;;15.83;14.40;;;12.40;96.20;;;;;;5058146;28;20457;-76
2022/10/23 04:13:38;;;;;;;15.10;14.20;;;12.50;96.20;;;;;;5072880;28;20494;-76
2022/10/23 04:16:06;;;;;;;15.63;14.63;;;12.40;96.10;;;;;;5060763;28;20482;-76
2022/10/23 04:18:33;;;;;;;15.50;14.60;;;12.40;96.10;;;;;;5063666;28;20969;-76
2022/10/23 04:20:59;;;;;;;14.53;13.73;;;12.40;96.10;;;;;;5047547;28;20505;-77
2022/10/23 04:23:26;;;;;;;14.63;13.93;;;12.40;96.10;;;;;;5048223;28;20477;-77
2022/10/23 04:25:56;;;;;;;15.93;14.80;;;12.40;96.20;;;;;;5058932;28;20478;-77
2022/10/23 04:28:25;;;;;;;15.83;14.87;;;12.40;95.90;;;;;;5052892;28;20837;-77
2022/10/23 04:30:52;;;;;;;15.40;14.60;;;12.50;95.90;;;;;;5049309;28;20486;-77
2022/10/23 04:33:19;;;;;;;15.00;14.20;;;12.50;95.70;;;;;;5066108;28;20974;-77
2022/10/23 04:35:46;;;;;;;17.63;16.63;;;12.50;95.80;;;;;;5070938;28;20478;-76
2022/10/23 04:38:13;;;;;;;15.50;14.27;;;12.50;95.70;;;;;;5062954;28;20490;-77
2022/10/23 04:40:40;;;;;;;15.40;14.07;;;12.50;95.80;;;;;;5066216;28;20496;-77
2022/10/23 04:43:07;;;;;;;16.13;14.83;;;12.40;96.00;;;;;;5058967;28;20952;-77
2022/10/23 04:45:35;;;;;;;14.67;13.87;;;12.40;96.20;;;;;;5062770;28;20478;-77
2022/10/23 04:48:02;;;;;;;15.43;14.23;;;12.50;96.20;;;;;;5069468;28;20990;-77
2022/10/23 04:50:29;;;;;;;15.40;14.33;;;12.50;96.10;;;;;;5057939;28;20691;-77
2022/10/23 04:52:57;;;;;;;15.03;14.13;;;12.50;96.00;;;;;;5078531;28;20455;-77
2022/10/23 04:55:24;;;;;;;15.67;14.47;;;12.60;95.60;;;;;;5066177;28;20478;-77
2022/10/23 04:57:51;;;;;;;14.43;13.60;;;12.50;95.50;;;;;;5062981;28;20819;-77
2022/10/23 05:00:19;;;;;;;15.47;14.30;;;12.60;95.40;;;;;;5067397;28;20473;-77
2022/10/23 05:02:47;;;;;;;14.90;13.93;;;12.60;95.50;;;;;;5065766;28;20489;-77
2022/10/23 05:05:14;;;;;;;15.40;14.40;;;12.60;95.60;;;;;;5063890;28;20502;-77
2022/10/23 05:07:41;;;;;;;15.07;14.10;;;12.60;95.70;;;;;;5065237;28;20458;-77
2022/10/23 05:10:09;;;;;;;15.07;13.87;;;12.60;95.60;;;;;;5066993;28;20527;-77
2022/10/23 05:12:36;;;;;;;15.30;14.03;;;12.70;95.50;;;;;;5050400;28;20648;-77
2022/10/23 05:15:03;;;;;;;14.87;14.00;;;12.70;95.40;;;;;;5065055;28;20481;-77
2022/10/23 05:17:34;;;;;;;15.23;14.33;;;12.70;95.30;;;;;;5065843;28;20473;-77
2022/10/23 05:20:10;;;;;;;14.20;13.10;;;12.70;95.30;;;;;;5066810;28;20483;-77
2022/10/23 05:22:40;;;;;;;18.20;17.03;;;12.80;95.20;;;;;;5065981;28;20943;-77
2022/10/23 05:25:07;;;;;;;15.60;14.80;;;12.80;95.10;;;;;;5068068;28;20481;-77
2022/10/23 05:27:34;;;;;;;15.27;14.50;;;12.70;95.20;;;;;;5073609;28;20568;-77
2022/10/23 05:30:02;;;;;;;14.87;13.77;;;12.70;95.20;;;;;;5080031;28;20449;-77
2022/10/23 05:32:31;;;;;;;14.80;13.90;;;12.70;95.20;;;;;;5057847;28;20547;-77
2022/10/23 05:34:59;;;;;;;16.43;15.53;;;12.70;95.20;;;;;;5054603;28;20498;-77
2022/10/23 05:37:27;;;;;;;16.53;15.73;;;12.80;95.20;;;;;;5080128;28;20542;-77
2022/10/23 05:39:54;;;;;;;15.67;14.57;;;12.80;95.10;;;;;;5088350;28;20483;-77
2022/10/23 05:42:21;;;;;;;17.33;16.40;;;12.70;95.20;;;;;;5079402;28;20540;-77
2022/10/23 05:44:48;;;;;;;14.73;13.63;;;12.70;95.20;;;;;;5050792;28;21212;-77
2022/10/23 05:47:15;;;;;;;16.00;14.60;;;12.70;95.20;;;;;;5049102;28;20545;-77
2022/10/23 05:49:42;;;;;;;16.80;15.90;;;12.70;95.10;;;;;;5058325;28;20454;-77
2022/10/23 05:52:11;;;;;;;18.27;16.27;;;12.60;95.20;;;;;;5050449;28;20553;-77
2022/10/23 05:54:39;;;;;;;16.53;15.47;;;12.60;95.40;;;;;;5067220;28;20532;-77
2022/10/23 05:57:06;;;;;;;17.17;15.63;;;12.60;95.60;;;;;;5073005;28;20460;-77
2022/10/23 05:59:33;;;;;;;19.20;18.27;;;12.60;95.80;;;;;;5069493;28;20470;-77
2022/10/23 06:02:00;;;;;;;27.47;25.80;;;12.60;95.70;;;;;;5076473;28;20455;-77
2022/10/23 06:04:27;;;;;;;15.70;14.37;;;12.60;95.60;;;;;;5068247;28;20496;-77
2022/10/23 06:06:54;;;;;;;15.20;14.10;;;12.60;95.60;;;;;;5075660;28;20461;-77
2022/10/23 06:09:21;;;;;;;14.77;13.87;;;12.70;95.60;;;;;;5080716;28;21062;-76
2022/10/23 06:11:49;;;;;;;26.33;24.90;;;12.70;95.40;;;;;;5059301;28;20538;-77
2022/10/23 06:14:16;;;;;;;22.30;21.03;;;12.70;95.40;;;;;;5053515;28;20565;-77
2022/10/23 06:16:43;;;;;;;15.67;14.63;;;12.70;95.40;;;;;;5056668;28;20455;-77
2022/10/23 06:19:10;;;;;;;23.57;22.30;;;12.70;95.30;;;;;;5080720;28;20502;-77
2022/10/23 06:21:37;;;;;;;15.80;14.90;;;12.70;95.40;;;;;;5059100;28;20478;-77
2022/10/23 06:24:05;;;;;;;15.03;13.93;;;12.70;95.40;;;;;;5055060;28;20461;-77
2022/10/23 06:26:32;;;;;;;23.73;22.53;;;12.80;95.20;;;;;;5060152;28;20484;-77
2022/10/23 06:29:01;;;;;;;19.30;17.77;;;12.80;95.10;;;;;;5080602;28;20455;-76
2022/10/23 06:31:28;;;;;;;16.40;15.03;;;12.90;94.90;;;;;;5065303;28;20453;-76
2022/10/23 06:33:55;;;;;;;23.33;22.00;;;12.90;94.90;;;;;;5080265;28;20491;-76
2022/10/23 06:36:22;;;;;;;24.43;23.03;;;12.90;94.90;;;;;;5058363;28;20479;-77
2022/10/23 06:38:49;;;;;;;17.37;16.20;;;12.90;94.90;;;;;;5083484;28;20446;-77
2022/10/23 06:41:18;;;;;;;16.43;15.60;;;13.00;94.60;;;;;;5070807;28;20472;-77
2022/10/23 06:43:47;;;;;;;17.50;16.37;;;13.10;94.40;;;;;;5067139;28;20502;-75
2022/10/23 06:46:16;;;;;;;19.47;18.27;;;13.10;94.00;;;;;;5061841;28;20610;-75
2022/10/23 06:48:43;;;;;;;21.03;19.90;;;13.20;93.70;;;;;;5071882;28;20542;-75
2022/10/23 06:51:12;;;;;;;16.30;15.33;;;13.20;93.70;;;;;;5069673;28;20454;-75
2022/10/23 06:53:39;;;;;;;16.17;15.23;;;13.30;93.70;;;;;;5069206;28;20454;-76
2022/10/23 06:56:08;;;;;;;31.83;30.07;;;13.30;93.50;;;;;;5060556;28;20965;-76
2022/10/23 06:58:36;;;;;;;18.67;17.77;;;13.40;93.30;;;;;;5052762;28;20975;-76
2022/10/23 07:01:05;;;;;;;21.10;19.80;;;13.40;93.30;;;;;;5073029;28;20569;-75
2022/10/23 07:03:34;;;;;;;19.70;18.40;;;13.50;93.10;;;;;;5067577;28;21238;-73
2022/10/23 07:06:03;;;;;;;16.93;15.70;;;13.60;92.80;;;;;;5072835;28;20488;-76
2022/10/23 07:08:30;;;;;;;18.20;17.30;;;13.80;92.40;;;;;;5088072;28;20464;-74
2022/10/23 07:10:57;;;;;;;26.07;24.73;;;13.90;92.00;;;;;;5075318;28;20526;-77
2022/10/23 07:13:24;;;;;;;19.73;18.53;;;14.00;91.60;;;;;;5063517;28;20461;-77
2022/10/23 07:15:51;;;;;;;23.33;22.20;;;14.00;91.70;;;;;;5062366;28;20478;-78
2022/10/23 07:18:18;;;;;;;22.23;21.03;;;14.10;91.70;;;;;;5062113;28;20469;-79
2022/10/23 07:20:48;;;;;;;22.60;21.40;;;14.10;91.60;;;;;;5079716;28;20478;-78
2022/10/23 07:23:15;;;;;;;18.00;16.80;;;14.20;91.40;;;;;;5064469;28;20458;-79
2022/10/23 07:25:43;;;;;;;21.67;16.17;;;14.40;90.50;;;;;;5057193;28;20480;-79
2022/10/23 07:28:10;;;;;;;19.53;18.43;;;14.40;90.30;;;;;;5063018;28;20550;-77
2022/10/23 07:30:47;;;;;;;22.30;21.10;;;14.40;90.30;;;;;;5063444;28;20544;-80
2022/10/23 07:33:14;;;;;;;17.00;15.87;;;14.60;89.70;;;;;;5055240;28;20467;-78
2022/10/23 07:35:41;;;;;;;17.80;16.37;;;14.60;89.50;;;;;;5060082;28;20867;-78
2022/10/23 07:38:09;;;;;;;20.77;19.30;;;14.70;89.60;;;;;;5063560;28;20470;-77
2022/10/23 07:40:36;;;;;;;16.47;15.50;;;14.80;88.90;;;;;;5071185;28;20534;-78
2022/10/23 07:43:03;;;;;;;17.53;16.63;;;14.90;88.40;;;;;;5078074;28;20462;-77
2022/10/23 07:45:30;;;;;;;26.50;25.10;;;15.00;88.50;;;;;;5075429;28;20904;-77
2022/10/23 07:47:57;;;;;;;19.07;17.77;;;15.10;88.40;;;;;;5071480;28;20818;-77
2022/10/23 07:50:24;;;;;;;24.83;23.70;;;15.20;88.20;;;;;;5070247;28;20460;-87
2022/10/23 07:52:50;;;;;;;19.27;17.97;;;15.40;87.60;;;;;;5074726;28;20462;-76
2022/10/23 07:55:19;;;;;;;18.27;17.37;;;15.50;87.00;;;;;;5072956;28;20481;-77
2022/10/23 07:57:46;;;;;;;18.20;17.20;;;15.70;86.70;;;;;;5081247;28;20453;-77
2022/10/23 08:00:13;;;;;;;18.40;17.50;;;15.70;85.50;;;;;;5052884;28;20553;-75
2022/10/23 08:02:40;;;;;;;23.13;21.53;;;15.80;85.10;;;;;;5076920;28;20457;-75
2022/10/23 08:05:08;;;;;;;20.20;19.20;;;15.90;84.80;;;;;;5079534;28;20584;-74
2022/10/23 08:07:35;;;;;;;23.93;22.70;;;16.00;84.50;;;;;;5060372;28;20541;-74
2022/10/23 08:10:02;;;;;;;19.13;18.23;;;16.10;84.00;;;;;;5062198;28;20998;-74
2022/10/23 08:12:30;;;;;;;20.87;19.70;;;16.20;84.00;;;;;;5061898;28;20537;-74
2022/10/23 08:14:57;;;;;;;22.30;21.10;;;16.30;83.60;;;;;;5064996;28;20474;-74
2022/10/23 08:17:24;;;;;;;22.20;21.20;;;16.40;83.10;;;;;;5077034;28;20824;-75
2022/10/23 08:19:51;;;;;;;25.30;24.00;;;16.50;83.10;;;;;;5064506;28;20541;-76
2022/10/23 08:22:18;;;;;;;26.10;24.37;;;16.70;82.80;;;;;;5080545;28;20503;-76
2022/10/23 08:24:45;;;;;;;23.20;21.90;;;16.80;82.40;;;;;;5068912;28;20841;-76
2022/10/23 08:27:12;;;;;;;22.30;21.20;;;17.00;81.80;;;;;;5079900;28;20458;-76
2022/10/23 08:29:40;;;;;;;23.37;22.10;;;17.00;81.10;;;;;;5059645;28;20462;-76
2022/10/23 08:32:07;;;;;;;28.63;27.30;;;17.20;80.80;;;;;;5060387;28;20456;-75
2022/10/23 08:34:36;;;;;;;30.30;28.80;;;17.30;80.40;;;;;;5059993;28;20524;-74
2022/10/23 08:37:04;;;;;;;26.33;24.93;;;17.40;79.90;;;;;;5059412;28;20597;-74
2022/10/23 08:39:31;;;;;;;23.43;22.13;;;17.50;79.70;;;;;;5062834;28;20815;-75
2022/10/23 08:41:57;;;;;;;23.00;21.53;;;17.50;79.80;;;;;;5060993;28;20478;-75
2022/10/23 08:44:30;;;;;;;29.60;28.10;;;17.60;79.50;;;;;;5056160;28;20863;-74
2022/10/23 08:47:05;;;;;;;29.90;28.40;;;17.70;79.20;;;;;;5068867;28;20633;-74
2022/10/23 08:49:45;;;;;;;32.20;30.40;;;17.70;78.20;;;;;;5048431;28;20797;-75
2022/10/23 08:52:20;;;;;;;25.67;24.23;;;17.90;77.40;;;;;;5054450;28;20492;-75
2022/10/23 08:54:59;;;;;;;24.53;23.13;;;17.80;77.50;;;;;;5062762;28;20505;-75
2022/10/23 08:57:33;;;;;;;29.30;27.47;;;17.60;78.20;;;;;;5057029;28;20489;-75
2022/10/23 09:00:03;;;;;;;24.23;22.73;;;17.60;78.40;;;;;;5074702;28;20457;-75
2022/10/23 09:02:36;;;;;;;24.90;23.60;;;17.70;78.30;;;;;;5071687;28;20477;-75
2022/10/23 09:05:02;;;;;;;26.77;25.37;;;17.80;78.40;;;;;;5069610;28;20504;-75
2022/10/23 09:07:39;;;;;;;25.50;23.93;;;17.90;78.50;;;;;;5063304;28;20453;-75
2022/10/23 09:10:28;;;;;;;27.17;25.40;;;18.10;78.10;;;;;;5056840;28;20462;-75
2022/10/23 09:12:59;;;;;;;25.23;23.83;;;18.20;77.40;;;;;;5062580;28;20454;-75
2022/10/23 09:15:31;;;;;;;24.73;23.43;;;18.30;77.00;;;;;;5075689;28;20834;-75
2022/10/23 09:18:03;;;;;;;23.93;22.50;;;18.40;76.90;;;;;;5065910;28;20454;-75
2022/10/23 09:20:34;;;;;;;24.50;23.30;;;18.50;76.10;;;;;;5067319;28;20785;-75
2022/10/23 09:23:07;;;;;;;27.07;25.30;;;18.50;75.80;;;;;;5063340;28;20791;-75
2022/10/23 09:25:37;;;;;;;25.40;24.20;;;18.60;75.50;;;;;;5070505;28;20573;-75
2022/10/23 09:28:05;;;;;;;25.37;23.77;;;18.80;74.50;;;;;;5078667;28;20503;-75
2022/10/23 09:30:35;;;;;;;31.90;29.93;;;18.80;74.30;;;;;;5084927;28;20553;-75
2022/10/23 09:33:14;;;;;;;26.83;25.43;;;18.90;74.30;;;;;;5072468;28;20461;-75
2022/10/23 09:35:53;;;;;;;25.70;24.40;;;19.10;74.40;;;;;;5078971;28;20476;-75
2022/10/23 09:38:28;;;;;;;24.80;23.50;;;19.20;73.90;;;;;;5068932;28;20453;-75
2022/10/23 09:40:55;;;;;;;28.97;27.40;;;19.30;73.40;;;;;;5068729;28;20476;-75
2022/10/23 09:43:26;;;;;;;24.43;23.13;;;19.40;73.00;;;;;;5073085;28;20656;-75
2022/10/23 09:46:01;;;;;;;36.90;34.90;;;19.50;72.60;;;;;;5087141;28;20477;-75
2022/10/23 09:48:29;;;;;;;29.60;27.80;;;19.70;71.80;;;;;;5085242;28;20464;-75
2022/10/23 09:50:58;;;;;;;31.13;29.07;;;19.90;70.90;;;;;;5066513;28;20453;-75
2022/10/23 09:53:37;;;;;;;27.97;26.57;;;20.00;70.40;;;;;;5069296;28;21155;-75
2022/10/23 09:56:10;;;;;;;26.60;25.00;;;20.00;70.40;;;;;;5062557;28;21021;-75
2022/10/23 09:58:42;;;;;;;28.33;26.83;;;20.10;69.50;;;;;;5060940;28;20831;-75
2022/10/23 10:01:22;;;;;;;30.60;28.90;;;20.00;70.20;;;;;;5070418;28;20850;-75
2022/10/23 10:03:52;;;;;;;27.90;26.30;;;20.00;70.50;;;;;;5071640;28;20454;-75
2022/10/23 10:06:24;;;;;;;31.70;30.10;;;20.10;69.80;;;;;;5070505;28;20456;-75
2022/10/23 10:08:53;;;;;;;28.00;26.60;;;20.40;69.00;;;;;;5070195;28;20453;-75
2022/10/23 10:11:26;;;;;;;33.70;31.90;;;20.40;69.20;;;;;;5064520;28;20450;-75
2022/10/23 10:14:24;;;;;;;33.13;31.27;;;20.60;68.70;;;;;;5075545;28;20814;-74
2022/10/23 10:16:53;;;;;;;28.60;26.87;;;20.70;68.60;;;;;;5061494;28;20557;-74
2022/10/23 10:19:39;;;;;;;44.40;42.30;;;20.80;68.40;;;;;;5085274;28;20457;-75
2022/10/23 10:22:16;;;;;;;27.50;25.90;;;20.90;68.00;;;;;;5067002;28;20484;-75
2022/10/23 10:24:51;;;;;;;25.70;24.57;;;21.10;67.40;;;;;;5066172;28;20548;-74
2022/10/23 10:27:31;;;;;;;27.27;26.00;;;21.20;66.80;;;;;;5073679;28;20462;-75
2022/10/23 10:30:08;;;;;;;26.37;25.07;;;21.40;66.30;;;;;;5068613;28;20469;-75
2022/10/23 10:32:41;;;;;;;25.67;24.43;;;21.50;65.20;;;;;;5058903;28;20466;-75
2022/10/23 10:35:23;;;;;;;27.20;25.70;;;21.80;64.50;;;;;;5059681;28;20489;-74
2022/10/23 10:38:04;;;;;;;28.00;26.60;;;21.90;63.80;;;;;;5053947;28;20803;-75
2022/10/23 10:40:34;;;;;;;35.83;33.80;;;22.00;63.70;;;;;;5058994;28;20462;-75
2022/10/23 10:43:20;;;;;;;25.90;24.70;;;22.20;63.40;;;;;;5064199;28;20492;-75
2022/10/23 10:45:48;;;;;;;31.70;30.10;;;22.40;63.20;;;;;;5063327;28;20477;-73
2022/10/23 10:48:32;;;;;;;33.50;31.90;;;22.50;63.00;;;;;;5066092;28;20924;-76
2022/10/23 10:51:03;;;;;;;27.10;25.90;;;22.60;62.60;;;;;;5053014;28;20462;-76
2022/10/23 10:53:39;;;;;;;34.37;32.63;;;22.60;62.00;;;;;;5060320;28;20957;-77
2022/10/23 10:56:11;;;;;;;25.17;23.80;;;22.70;62.30;;;;;;5050255;28;20470;-77
2022/10/23 10:58:41;;;;;;;27.37;25.93;;;22.80;62.20;;;;;;5058354;28;20464;-78
2022/10/23 11:01:16;;;;;;;29.37;27.77;;;22.90;61.70;;;;;;5085218;28;20481;-77
2022/10/23 11:03:48;;;;;;;26.63;25.43;;;22.90;61.50;;;;;;5065965;28;20490;-77
2022/10/23 11:06:21;;;;;;;26.00;24.70;;;23.00;61.60;;;;;;5067783;28;20449;-77
2022/10/23 11:08:48;;;;;;;27.77;26.37;;;23.20;61.10;;;;;;5071811;28;20463;-77
2022/10/23 11:11:19;;;;;;;39.53;37.23;;;23.20;61.10;;;;;;5086743;28;20826;-77
2022/10/23 11:13:45;;;;;;;27.70;26.40;;;23.20;60.90;;;;;;5077020;28;20548;-78
2022/10/23 11:16:15;;;;;;;28.17;26.77;;;23.20;60.60;;;;;;5063306;28;20470;-77
2022/10/23 11:18:46;;;;;;;26.43;25.23;;;23.20;61.10;;;;;;5079471;28;20785;-77
2022/10/23 11:21:26;;;;;;;29.67;28.17;;;23.30;61.00;;;;;;5077209;28;20851;-78
2022/10/23 11:24:18;;;;;;;30.00;28.40;;;23.30;61.10;;;;;;5076143;28;20457;-77
2022/10/23 11:27:07;;;;;;;27.53;26.20;;;23.30;61.30;;;;;;5084089;28;20457;-77
2022/10/23 11:29:56;;;;;;;27.70;26.20;;;23.40;60.70;;;;;;5084565;28;20459;-78
2022/10/23 11:32:36;;;;;;;28.87;27.33;;;23.40;61.10;;;;;;5079125;28;20582;-77
2022/10/23 11:35:15;;;;;;;25.03;23.83;;;23.40;61.20;;;;;;5077963;28;20474;-78
2022/10/23 11:37:44;;;;;;;31.57;29.87;;;23.40;61.40;;;;;;5068213;28;20456;-77
2022/10/23 11:40:23;;;;;;;29.17;27.70;;;23.50;61.30;;;;;;5048738;28;20459;-78
2022/10/23 11:42:51;;;;;;;28.13;26.27;;;23.50;61.50;;;;;;5080614;28;20618;-78
2022/10/23 11:45:35;;;;;;;29.07;27.57;;;23.50;61.80;;;;;;5079089;28;20487;-78
2022/10/23 11:48:04;;;;;;;25.83;24.50;;;23.60;61.80;;;;;;5084764;28;20464;-77
2022/10/23 11:50:38;;;;;;;26.10;24.80;;;23.60;62.20;;;;;;5049605;28;20459;-77
2022/10/23 11:53:23;;;;;;;29.47;27.87;;;23.60;62.10;;;;;;5087913;28;20453;-78
2022/10/23 11:55:59;;;;;;;27.43;26.03;;;23.70;62.00;;;;;;5097976;28;20592;-77
2022/10/23 11:58:30;;;;;;;27.17;25.97;;;23.70;62.20;;;;;;5075776;28;20485;-78
2022/10/23 12:01:02;;;;;;;30.27;28.67;;;23.80;62.20;;;;;;5066172;28;20464;-76
2022/10/23 12:03:41;;;;;;;37.70;35.77;;;23.90;62.30;;;;;;5054732;28;20486;-76
2022/10/23 12:06:21;;;;;;;29.20;27.50;;;23.90;62.20;;;;;;5060391;28;20479;-82
2022/10/23 12:08:59;;;;;;;26.30;25.00;;;24.00;61.40;;;;;;5089636;28;21030;-74
2022/10/23 12:11:29;;;;;;;27.77;26.30;;;24.00;61.10;;;;;;5091445;28;20957;-75
2022/10/23 12:13:56;;;;;;;30.40;28.77;;;23.90;61.60;;;;;;5081166;28;20536;-77
2022/10/23 12:16:34;;;;;;;28.53;27.03;;;24.00;61.80;;;;;;5049110;28;20557;-74
2022/10/23 12:19:19;;;;;;;34.70;32.80;;;24.10;61.90;;;;;;5072880;28;20465;-73
2022/10/23 12:21:47;;;;;;;33.77;32.00;;;24.20;62.10;;;;;;5064593;28;20486;-74
2022/10/23 12:24:38;;;;;;;28.63;27.20;;;24.20;61.80;;;;;;5057216;28;20482;-74
2022/10/23 12:27:16;;;;;;;28.90;27.50;;;24.30;61.10;;;;;;5071386;28;20498;-74
2022/10/23 12:29:54;;;;;;;28.67;27.07;;;24.30;61.30;;;;;;5059029;28;20960;-74
2022/10/23 12:32:49;;;;;;;28.20;26.80;;;24.40;61.30;;;;;;5059537;28;20454;-75
2022/10/23 12:35:38;;;;;;;28.10;26.60;;;24.50;61.30;;;;;;5080875;28;20530;-74
2022/10/23 12:38:13;;;;;;;27.17;25.77;;;24.70;61.20;;;;;;5070864;28;20461;-73
2022/10/23 12:40:45;;;;;;;29.30;27.67;;;24.70;61.30;;;;;;5060188;28;20455;-73
2022/10/23 12:43:26;;;;;;;32.57;30.67;;;24.80;60.60;;;;;;5059851;28;20481;-73
2022/10/23 12:45:55;;;;;;;28.77;27.47;;;24.70;61.00;;;;;;5073035;28;20481;-73